sensor_id;sensor_type;location;lat;lon;timestamp;temperature;humidity
69324;DHT22;56470;47.350;8.718;2022-12-07T00:01:37;4.31;76.02
69324;DHT22;56470;47.350;8.718;2022-12-07T00:04:04;4.31;76.04
69324;DHT22;56470;47.350;8.718;2022-12-07T00:06:39;4.27;76.08
69324;DHT22;56470;47.350;8.718;2022-12-07T00:09:06;4.33;76.18
69324;DHT22;56470;47.350;8.718;2022-12-07T00:11:31;4.38;76.10
69324;DHT22;56470;47.350;8.718;2022-12-07T00:13:59;4.42;76.04
69324;DHT22;56470;47.350;8.718;2022-12-07T00:16:29;4.48;75.87
69324;DHT22;56470;47.350;8.718;2022-12-07T00:18:55;4.46;75.77
69324;DHT22;56470;47.350;8.718;2022-12-07T00:21:29;4.46;75.69
69324;DHT22;56470;47.350;8.718;2022-12-07T00:23:55;4.46;75.70
69324;DHT22;56470;47.350;8.718;2022-12-07T00:26:24;4.48;75.61
69324;DHT22;56470;47.350;8.718;2022-12-07T00:28:55;4.48;75.62
69324;DHT22;56470;47.350;8.718;2022-12-07T00:31:23;4.51;75.58
69324;DHT22;56470;47.350;8.718;2022-12-07T00:33:49;4.49;75.49
69324;DHT22;56470;47.350;8.718;2022-12-07T00:36:17;4.46;75.58
69324;DHT22;56470;47.350;8.718;2022-12-07T00:38:43;4.45;75.58
69324;DHT22;56470;47.350;8.718;2022-12-07T00:41:14;4.44;75.58
69324;DHT22;56470;47.350;8.718;2022-12-07T00:43:41;4.41;75.45
69324;DHT22;56470;47.350;8.718;2022-12-07T00:46:07;4.40;75.55
69324;DHT22;56470;47.350;8.718;2022-12-07T00:48:32;4.42;75.24
69324;DHT22;56470;47.350;8.718;2022-12-07T00:50:58;4.42;75.37
69324;DHT22;56470;47.350;8.718;2022-12-07T00:53:24;4.41;75.37
69324;DHT22;56470;47.350;8.718;2022-12-07T00:55:49;4.37;75.46
69324;DHT22;56470;47.350;8.718;2022-12-07T00:58:15;4.35;75.67
69324;DHT22;56470;47.350;8.718;2022-12-07T01:00:41;4.30;75.82
69324;DHT22;56470;47.350;8.718;2022-12-07T01:03:09;4.30;75.88
69324;DHT22;56470;47.350;8.718;2022-12-07T01:05:34;4.27;75.84
69324;DHT22;56470;47.350;8.718;2022-12-07T01:08:00;4.27;75.91
69324;DHT22;56470;47.350;8.718;2022-12-07T01:10:26;4.30;75.90
69324;DHT22;56470;47.350;8.718;2022-12-07T01:12:51;4.31;75.95
69324;DHT22;56470;47.350;8.718;2022-12-07T01:15:17;4.27;76.04
69324;DHT22;56470;47.350;8.718;2022-12-07T01:17:42;4.27;76.07
69324;DHT22;56470;47.350;8.718;2022-12-07T01:20:08;4.27;76.15
69324;DHT22;56470;47.350;8.718;2022-12-07T01:22:38;4.33;76.10
69324;DHT22;56470;47.350;8.718;2022-12-07T01:25:05;4.33;76.06
69324;DHT22;56470;47.350;8.718;2022-12-07T01:27:30;4.30;76.04
69324;DHT22;56470;47.350;8.718;2022-12-07T01:29:57;4.30;76.07
69324;DHT22;56470;47.350;8.718;2022-12-07T01:32:22;4.28;76.14
69324;DHT22;56470;47.350;8.718;2022-12-07T01:34:48;4.33;76.12
69324;DHT22;56470;47.350;8.718;2022-12-07T01:37:13;4.31;76.13
69324;DHT22;56470;47.350;8.718;2022-12-07T01:39:38;4.31;76.12
69324;DHT22;56470;47.350;8.718;2022-12-07T01:42:04;4.33;76.19
69324;DHT22;56470;47.350;8.718;2022-12-07T01:44:29;4.34;76.24
69324;DHT22;56470;47.350;8.718;2022-12-07T01:46:58;4.35;76.23
69324;DHT22;56470;47.350;8.718;2022-12-07T01:49:44;4.27;76.35
69324;DHT22;56470;47.350;8.718;2022-12-07T01:52:25;4.27;76.23
69324;DHT22;56470;47.350;8.718;2022-12-07T01:54:54;4.28;76.44
69324;DHT22;56470;47.350;8.718;2022-12-07T01:57:22;4.28;76.37
69324;DHT22;56470;47.350;8.718;2022-12-07T01:59:49;4.27;76.30
69324;DHT22;56470;47.350;8.718;2022-12-07T02:02:29;4.24;76.41
69324;DHT22;56470;47.350;8.718;2022-12-07T02:04:57;4.16;76.58
69324;DHT22;56470;47.350;8.718;2022-12-07T02:07:23;4.07;76.72
69324;DHT22;56470;47.350;8.718;2022-12-07T02:09:50;4.06;76.89
69324;DHT22;56470;47.350;8.718;2022-12-07T02:12:15;4.08;76.84
69324;DHT22;56470;47.350;8.718;2022-12-07T02:14:44;4.11;76.73
69324;DHT22;56470;47.350;8.718;2022-12-07T02:20:32;4.10;76.69
69324;DHT22;56470;47.350;8.718;2022-12-07T02:28:34;4.18;76.53
69324;DHT22;56470;47.350;8.718;2022-12-07T02:31:08;4.17;76.44
69324;DHT22;56470;47.350;8.718;2022-12-07T02:33:39;4.17;76.57
69324;DHT22;56470;47.350;8.718;2022-12-07T02:36:32;4.16;76.69
69324;DHT22;56470;47.350;8.718;2022-12-07T02:39:07;4.18;76.41
69324;DHT22;56470;47.350;8.718;2022-12-07T02:41:38;4.20;76.43
69324;DHT22;56470;47.350;8.718;2022-12-07T02:44:09;4.20;76.33
69324;DHT22;56470;47.350;8.718;2022-12-07T02:46:42;4.20;76.36
69324;DHT22;56470;47.350;8.718;2022-12-07T02:49:08;4.18;76.40
69324;DHT22;56470;47.350;8.718;2022-12-07T02:51:39;4.20;76.40
69324;DHT22;56470;47.350;8.718;2022-12-07T02:54:12;4.25;76.35
69324;DHT22;56470;47.350;8.718;2022-12-07T03:05:15;4.28;76.04
69324;DHT22;56470;47.350;8.718;2022-12-07T03:08:02;4.24;76.03
69324;DHT22;56470;47.350;8.718;2022-12-07T03:10:56;4.25;76.02
69324;DHT22;56470;47.350;8.718;2022-12-07T03:13:25;4.28;76.07
69324;DHT22;56470;47.350;8.718;2022-12-07T03:16:05;4.28;75.99
69324;DHT22;56470;47.350;8.718;2022-12-07T03:18:37;4.31;75.98
69324;DHT22;56470;47.350;8.718;2022-12-07T03:21:08;4.38;75.98
69324;DHT22;56470;47.350;8.718;2022-12-07T03:23:37;4.38;75.81
69324;DHT22;56470;47.350;8.718;2022-12-07T03:26:04;4.40;75.81
69324;DHT22;56470;47.350;8.718;2022-12-07T03:28:34;4.40;75.77
69324;DHT22;56470;47.350;8.718;2022-12-07T03:31:22;4.40;75.52
69324;DHT22;56470;47.350;8.718;2022-12-07T03:36:42;4.42;75.55
69324;DHT22;56470;47.350;8.718;2022-12-07T03:39:21;4.38;75.59
69324;DHT22;56470;47.350;8.718;2022-12-07T03:41:48;4.41;75.61
69324;DHT22;56470;47.350;8.718;2022-12-07T03:44:15;4.41;75.59
69324;DHT22;56470;47.350;8.718;2022-12-07T03:49:37;4.44;75.46
69324;DHT22;56470;47.350;8.718;2022-12-07T03:52:25;4.46;75.50
69324;DHT22;56470;47.350;8.718;2022-12-07T03:54:53;4.52;75.51
69324;DHT22;56470;47.350;8.718;2022-12-07T03:57:21;4.58;75.48
69324;DHT22;56470;47.350;8.718;2022-12-07T03:59:48;4.61;75.38
69324;DHT22;56470;47.350;8.718;2022-12-07T04:02:14;4.62;75.37
69324;DHT22;56470;47.350;8.718;2022-12-07T04:04:41;4.62;75.38
69324;DHT22;56470;47.350;8.718;2022-12-07T04:07:07;4.68;75.37
69324;DHT22;56470;47.350;8.718;2022-12-07T04:09:32;4.72;75.33
69324;DHT22;56470;47.350;8.718;2022-12-07T04:11:57;4.72;75.28
69324;DHT22;56470;47.350;8.718;2022-12-07T04:14:22;4.73;75.30
69324;DHT22;56470;47.350;8.718;2022-12-07T04:16:50;4.79;75.31
69324;DHT22;56470;47.350;8.718;2022-12-07T04:19:18;4.76;75.22
69324;DHT22;56470;47.350;8.718;2022-12-07T04:21:44;4.80;75.18
69324;DHT22;56470;47.350;8.718;2022-12-07T04:24:09;4.79;75.03
69324;DHT22;56470;47.350;8.718;2022-12-07T04:26:35;4.80;74.98
69324;DHT22;56470;47.350;8.718;2022-12-07T04:29:00;4.75;75.01
69324;DHT22;56470;47.350;8.718;2022-12-07T04:31:25;4.75;75.11
69324;DHT22;56470;47.350;8.718;2022-12-07T04:33:51;4.69;75.09
69324;DHT22;56470;47.350;8.718;2022-12-07T04:36:16;4.69;75.15
69324;DHT22;56470;47.350;8.718;2022-12-07T04:38:41;4.69;75.27
69324;DHT22;56470;47.350;8.718;2022-12-07T04:41:08;4.69;75.36
69324;DHT22;56470;47.350;8.718;2022-12-07T04:43:35;4.73;75.36
69324;DHT22;56470;47.350;8.718;2022-12-07T04:46:01;4.72;75.25
69324;DHT22;56470;47.350;8.718;2022-12-07T04:48:27;4.73;75.25
69324;DHT22;56470;47.350;8.718;2022-12-07T04:50:52;4.68;75.17
69324;DHT22;56470;47.350;8.718;2022-12-07T04:53:18;4.63;75.32
69324;DHT22;56470;47.350;8.718;2022-12-07T04:55:44;4.63;75.35
69324;DHT22;56470;47.350;8.718;2022-12-07T04:58:10;4.65;75.33
69324;DHT22;56470;47.350;8.718;2022-12-07T05:00:35;4.63;75.34
69324;DHT22;56470;47.350;8.718;2022-12-07T05:03:00;4.61;75.32
69324;DHT22;56470;47.350;8.718;2022-12-07T05:05:26;4.59;75.40
69324;DHT22;56470;47.350;8.718;2022-12-07T05:07:51;4.61;75.41
69324;DHT22;56470;47.350;8.718;2022-12-07T05:10:16;4.61;75.33
69324;DHT22;56470;47.350;8.718;2022-12-07T05:12:42;4.63;75.32
69324;DHT22;56470;47.350;8.718;2022-12-07T05:15:07;4.65;75.34
69324;DHT22;56470;47.350;8.718;2022-12-07T05:17:33;4.62;75.35
69324;DHT22;56470;47.350;8.718;2022-12-07T05:19:58;4.61;75.36
69324;DHT22;56470;47.350;8.718;2022-12-07T05:22:24;4.62;75.42
69324;DHT22;56470;47.350;8.718;2022-12-07T05:24:53;4.59;75.44
69324;DHT22;56470;47.350;8.718;2022-12-07T05:27:19;4.53;75.45
69324;DHT22;56470;47.350;8.718;2022-12-07T05:29:44;4.56;75.57
69324;DHT22;56470;47.350;8.718;2022-12-07T05:32:09;4.55;75.49
69324;DHT22;56470;47.350;8.718;2022-12-07T05:34:34;4.52;75.49
69324;DHT22;56470;47.350;8.718;2022-12-07T05:37:00;4.48;75.54
69324;DHT22;56470;47.350;8.718;2022-12-07T05:39:25;4.42;75.59
69324;DHT22;56470;47.350;8.718;2022-12-07T05:41:50;4.42;75.62
69324;DHT22;56470;47.350;8.718;2022-12-07T05:44:34;4.38;75.80
69324;DHT22;56470;47.350;8.718;2022-12-07T05:47:00;4.34;75.87
69324;DHT22;56470;47.350;8.718;2022-12-07T05:49:25;4.31;75.94
69324;DHT22;56470;47.350;8.718;2022-12-07T05:51:50;4.28;76.05
69324;DHT22;56470;47.350;8.718;2022-12-07T05:54:16;4.28;76.17
69324;DHT22;56470;47.350;8.718;2022-12-07T05:56:41;4.33;76.24
69324;DHT22;56470;47.350;8.718;2022-12-07T05:59:08;4.33;76.26
69324;DHT22;56470;47.350;8.718;2022-12-07T06:01:53;4.34;76.24
69324;DHT22;56470;47.350;8.718;2022-12-07T06:04:20;4.37;76.20
69324;DHT22;56470;47.350;8.718;2022-12-07T06:06:45;4.40;76.29
69324;DHT22;56470;47.350;8.718;2022-12-07T06:09:11;4.42;76.29
69324;DHT22;56470;47.350;8.718;2022-12-07T06:11:38;4.45;76.31
69324;DHT22;56470;47.350;8.718;2022-12-07T06:14:25;4.44;76.22
69324;DHT22;56470;47.350;8.718;2022-12-07T06:16:51;4.45;76.29
69324;DHT22;56470;47.350;8.718;2022-12-07T06:19:16;4.49;76.17
69324;DHT22;56470;47.350;8.718;2022-12-07T06:21:42;4.51;76.15
69324;DHT22;56470;47.350;8.718;2022-12-07T06:24:10;4.53;76.06
69324;DHT22;56470;47.350;8.718;2022-12-07T06:26:36;4.56;76.00
69324;DHT22;56470;47.350;8.718;2022-12-07T06:29:01;4.56;76.00
69324;DHT22;56470;47.350;8.718;2022-12-07T06:31:27;4.59;76.02
69324;DHT22;56470;47.350;8.718;2022-12-07T06:33:57;4.63;75.90
69324;DHT22;56470;47.350;8.718;2022-12-07T06:36:23;4.61;75.89
69324;DHT22;56470;47.350;8.718;2022-12-07T06:38:48;4.58;75.89
69324;DHT22;56470;47.350;8.718;2022-12-07T06:41:13;4.61;75.81
69324;DHT22;56470;47.350;8.718;2022-12-07T06:43:39;4.56;75.77
69324;DHT22;56470;47.350;8.718;2022-12-07T06:46:04;4.59;75.76
69324;DHT22;56470;47.350;8.718;2022-12-07T06:48:30;4.59;75.89
69324;DHT22;56470;47.350;8.718;2022-12-07T06:50:55;4.61;75.90
69324;DHT22;56470;47.350;8.718;2022-12-07T06:53:21;4.61;75.99
69324;DHT22;56470;47.350;8.718;2022-12-07T06:55:47;4.61;75.92
69324;DHT22;56470;47.350;8.718;2022-12-07T06:58:12;4.55;76.05
69324;DHT22;56470;47.350;8.718;2022-12-07T07:00:37;4.55;76.13
69324;DHT22;56470;47.350;8.718;2022-12-07T07:03:03;4.52;76.20
69324;DHT22;56470;47.350;8.718;2022-12-07T07:05:28;4.56;76.32
69324;DHT22;56470;47.350;8.718;2022-12-07T07:07:53;4.52;76.49
69324;DHT22;56470;47.350;8.718;2022-12-07T07:10:19;4.48;76.63
69324;DHT22;56470;47.350;8.718;2022-12-07T07:12:44;4.48;76.83
69324;DHT22;56470;47.350;8.718;2022-12-07T07:15:09;4.46;77.06
69324;DHT22;56470;47.350;8.718;2022-12-07T07:17:36;4.45;77.11
69324;DHT22;56470;47.350;8.718;2022-12-07T07:20:02;4.41;77.20
69324;DHT22;56470;47.350;8.718;2022-12-07T07:22:27;4.37;77.52
69324;DHT22;56470;47.350;8.718;2022-12-07T07:24:52;4.37;77.69
69324;DHT22;56470;47.350;8.718;2022-12-07T07:27:17;4.40;77.70
69324;DHT22;56470;47.350;8.718;2022-12-07T07:29:43;4.41;77.89
69324;DHT22;56470;47.350;8.718;2022-12-07T07:32:08;4.40;78.16
69324;DHT22;56470;47.350;8.718;2022-12-07T07:34:34;4.34;78.32
69324;DHT22;56470;47.350;8.718;2022-12-07T07:36:59;4.35;78.38
69324;DHT22;56470;47.350;8.718;2022-12-07T07:39:24;4.40;78.39
69324;DHT22;56470;47.350;8.718;2022-12-07T07:41:50;4.41;78.41
69324;DHT22;56470;47.350;8.718;2022-12-07T07:44:15;4.41;78.36
69324;DHT22;56470;47.350;8.718;2022-12-07T07:46:40;4.45;78.26
69324;DHT22;56470;47.350;8.718;2022-12-07T07:49:06;4.48;78.21
69324;DHT22;56470;47.350;8.718;2022-12-07T07:51:31;4.46;78.24
69324;DHT22;56470;47.350;8.718;2022-12-07T07:53:56;4.48;78.38
69324;DHT22;56470;47.350;8.718;2022-12-07T07:56:21;4.51;78.73
69324;DHT22;56470;47.350;8.718;2022-12-07T07:58:47;4.52;78.57
69324;DHT22;56470;47.350;8.718;2022-12-07T08:01:12;4.53;78.34
69324;DHT22;56470;47.350;8.718;2022-12-07T08:03:39;4.53;78.54
69324;DHT22;56470;47.350;8.718;2022-12-07T08:06:04;4.55;78.64
69324;DHT22;56470;47.350;8.718;2022-12-07T08:08:30;4.58;78.52
69324;DHT22;56470;47.350;8.718;2022-12-07T08:10:55;4.55;78.90
69324;DHT22;56470;47.350;8.718;2022-12-07T08:13:20;4.52;78.74
69324;DHT22;56470;47.350;8.718;2022-12-07T08:15:47;4.52;78.76
69324;DHT22;56470;47.350;8.718;2022-12-07T08:18:14;4.46;78.92
69324;DHT22;56470;47.350;8.718;2022-12-07T08:20:40;4.46;78.91
69324;DHT22;56470;47.350;8.718;2022-12-07T08:23:07;4.49;78.95
69324;DHT22;56470;47.350;8.718;2022-12-07T08:25:33;4.46;78.89
69324;DHT22;56470;47.350;8.718;2022-12-07T08:27:58;4.44;79.10
69324;DHT22;56470;47.350;8.718;2022-12-07T08:30:26;4.46;79.26
69324;DHT22;56470;47.350;8.718;2022-12-07T08:32:51;4.49;79.31
69324;DHT22;56470;47.350;8.718;2022-12-07T08:35:16;4.52;79.18
69324;DHT22;56470;47.350;8.718;2022-12-07T08:37:42;4.51;79.21
69324;DHT22;56470;47.350;8.718;2022-12-07T08:40:09;4.51;79.49
69324;DHT22;56470;47.350;8.718;2022-12-07T08:42:35;4.56;79.17
69324;DHT22;56470;47.350;8.718;2022-12-07T08:45:12;4.56;78.94
69324;DHT22;56470;47.350;8.718;2022-12-07T08:47:44;4.61;78.85
69324;DHT22;56470;47.350;8.718;2022-12-07T08:50:11;4.65;78.78
69324;DHT22;56470;47.350;8.718;2022-12-07T08:52:37;4.66;78.86
69324;DHT22;56470;47.350;8.718;2022-12-07T08:55:04;4.63;78.89
69324;DHT22;56470;47.350;8.718;2022-12-07T08:57:33;4.63;78.84
69324;DHT22;56470;47.350;8.718;2022-12-07T08:59:59;4.63;79.11
69324;DHT22;56470;47.350;8.718;2022-12-07T09:02:28;4.63;78.87
69324;DHT22;56470;47.350;8.718;2022-12-07T09:04:53;4.63;78.99
69324;DHT22;56470;47.350;8.718;2022-12-07T09:07:18;4.65;79.01
69324;DHT22;56470;47.350;8.718;2022-12-07T09:09:44;4.65;79.04
69324;DHT22;56470;47.350;8.718;2022-12-07T09:12:09;4.68;79.15
69324;DHT22;56470;47.350;8.718;2022-12-07T09:14:35;4.68;79.10
69324;DHT22;56470;47.350;8.718;2022-12-07T09:17:11;4.66;79.15
69324;DHT22;56470;47.350;8.718;2022-12-07T09:19:37;4.68;79.24
69324;DHT22;56470;47.350;8.718;2022-12-07T09:22:03;4.70;79.18
69324;DHT22;56470;47.350;8.718;2022-12-07T09:24:30;4.69;79.13
69324;DHT22;56470;47.350;8.718;2022-12-07T09:26:56;4.73;79.13
69324;DHT22;56470;47.350;8.718;2022-12-07T09:29:22;4.76;79.21
69324;DHT22;56470;47.350;8.718;2022-12-07T09:31:47;4.80;79.15
69324;DHT22;56470;47.350;8.718;2022-12-07T09:34:13;4.81;79.01
69324;DHT22;56470;47.350;8.718;2022-12-07T09:36:39;4.81;79.07
69324;DHT22;56470;47.350;8.718;2022-12-07T09:39:04;4.80;79.09
69324;DHT22;56470;47.350;8.718;2022-12-07T09:41:31;4.81;79.22
69324;DHT22;56470;47.350;8.718;2022-12-07T09:44:13;4.86;79.28
69324;DHT22;56470;47.350;8.718;2022-12-07T09:46:41;4.86;79.14
69324;DHT22;56470;47.350;8.718;2022-12-07T09:49:14;4.91;79.07
69324;DHT22;56470;47.350;8.718;2022-12-07T09:51:41;4.89;78.99
69324;DHT22;56470;47.350;8.718;2022-12-07T09:54:11;4.87;79.01
69324;DHT22;56470;47.350;8.718;2022-12-07T09:56:37;4.80;79.48
69324;DHT22;56470;47.350;8.718;2022-12-07T09:59:02;4.77;79.46
69324;DHT22;56470;47.350;8.718;2022-12-07T10:01:30;4.80;79.65
69324;DHT22;56470;47.350;8.718;2022-12-07T10:04:10;4.83;79.78
69324;DHT22;56470;47.350;8.718;2022-12-07T10:06:38;4.86;79.87
69324;DHT22;56470;47.350;8.718;2022-12-07T10:09:09;4.90;79.97
69324;DHT22;56470;47.350;8.718;2022-12-07T10:11:35;4.93;80.06
69324;DHT22;56470;47.350;8.718;2022-12-07T10:14:20;4.96;79.78
69324;DHT22;56470;47.350;8.718;2022-12-07T10:16:46;5.01;79.68
69324;DHT22;56470;47.350;8.718;2022-12-07T10:19:21;5.03;79.58
69324;DHT22;56470;47.350;8.718;2022-12-07T10:22:07;5.06;79.58
69324;DHT22;56470;47.350;8.718;2022-12-07T10:24:34;5.03;79.54
69324;DHT22;56470;47.350;8.718;2022-12-07T10:26:59;5.03;79.52
69324;DHT22;56470;47.350;8.718;2022-12-07T10:32:06;5.06;79.30
69324;DHT22;56470;47.350;8.718;2022-12-07T10:34:48;5.08;79.43
69324;DHT22;56470;47.350;8.718;2022-12-07T10:37:16;5.11;79.26
69324;DHT22;56470;47.350;8.718;2022-12-07T10:39:43;5.10;79.34
69324;DHT22;56470;47.350;8.718;2022-12-07T10:44:45;5.13;79.48
69324;DHT22;56470;47.350;8.718;2022-12-07T10:47:21;5.07;79.39
69324;DHT22;56470;47.350;8.718;2022-12-07T11:00:23;4.96;79.94
69324;DHT22;56470;47.350;8.718;2022-12-07T11:08:27;5.04;79.40
69324;DHT22;56470;47.350;8.718;2022-12-07T11:11:16;5.01;79.83
69324;DHT22;56470;47.350;8.718;2022-12-07T11:19:49;4.94;80.30
69324;DHT22;56470;47.350;8.718;2022-12-07T11:22:30;5.03;79.92
69324;DHT22;56470;47.350;8.718;2022-12-07T11:25:34;5.07;79.67
69324;DHT22;56470;47.350;8.718;2022-12-07T11:28:31;5.06;79.82
69324;DHT22;56470;47.350;8.718;2022-12-07T11:31:13;5.13;79.36
69324;DHT22;56470;47.350;8.718;2022-12-07T11:33:47;5.17;79.24
69324;DHT22;56470;47.350;8.718;2022-12-07T11:36:37;5.20;79.36
69324;DHT22;56470;47.350;8.718;2022-12-07T11:41:45;5.30;79.15
69324;DHT22;56470;47.350;8.718;2022-12-07T11:44:33;5.27;79.20
69324;DHT22;56470;47.350;8.718;2022-12-07T11:47:10;5.35;78.93
69324;DHT22;56470;47.350;8.718;2022-12-07T11:49:43;5.31;79.06
69324;DHT22;56470;47.350;8.718;2022-12-07T11:52:18;5.34;78.99
69324;DHT22;56470;47.350;8.718;2022-12-07T11:54:46;5.38;79.04
69324;DHT22;56470;47.350;8.718;2022-12-07T11:57:19;5.38;78.88
69324;DHT22;56470;47.350;8.718;2022-12-07T11:59:50;5.38;78.95
69324;DHT22;56470;47.350;8.718;2022-12-07T12:02:24;5.38;78.88
69324;DHT22;56470;47.350;8.718;2022-12-07T12:07:33;5.43;78.96
69324;DHT22;56470;47.350;8.718;2022-12-07T12:10:06;5.49;78.85
69324;DHT22;56470;47.350;8.718;2022-12-07T12:13:02;5.52;78.72
69324;DHT22;56470;47.350;8.718;2022-12-07T12:18:39;5.56;77.96
69324;DHT22;56470;47.350;8.718;2022-12-07T12:21:14;5.59;77.96
69324;DHT22;56470;47.350;8.718;2022-12-07T12:23:45;5.62;77.90
69324;DHT22;56470;47.350;8.718;2022-12-07T12:26:20;5.60;77.82
69324;DHT22;56470;47.350;8.718;2022-12-07T12:33:58;5.66;77.67
69324;DHT22;56470;47.350;8.718;2022-12-07T12:36:42;5.70;77.63
69324;DHT22;56470;47.350;8.718;2022-12-07T12:39:12;5.73;77.48
69324;DHT22;56470;47.350;8.718;2022-12-07T12:46:59;5.71;77.15
69324;DHT22;56470;47.350;8.718;2022-12-07T12:51:52;5.60;76.94
69324;DHT22;56470;47.350;8.718;2022-12-07T12:59:33;5.67;76.45
69324;DHT22;56470;47.350;8.718;2022-12-07T13:02:27;5.69;76.41
69324;DHT22;56470;47.350;8.718;2022-12-07T13:05:02;5.65;76.33
69324;DHT22;56470;47.350;8.718;2022-12-07T13:18:37;5.73;76.38
69324;DHT22;56470;47.350;8.718;2022-12-07T13:28:50;5.74;76.43
69324;DHT22;56470;47.350;8.718;2022-12-07T13:31:30;5.77;76.33
69324;DHT22;56470;47.350;8.718;2022-12-07T13:33:56;5.76;76.45
69324;DHT22;56470;47.350;8.718;2022-12-07T13:36:26;5.79;76.47
69324;DHT22;56470;47.350;8.718;2022-12-07T13:39:11;5.81;76.29
69324;DHT22;56470;47.350;8.718;2022-12-07T13:41:42;5.85;76.13
69324;DHT22;56470;47.350;8.718;2022-12-07T13:44:13;5.86;76.05
69324;DHT22;56470;47.350;8.718;2022-12-07T13:49:31;5.91;75.84
69324;DHT22;56470;47.350;8.718;2022-12-07T13:52:14;5.89;75.44
69324;DHT22;56470;47.350;8.718;2022-12-07T13:57:33;5.85;75.58
69324;DHT22;56470;47.350;8.718;2022-12-07T14:00:01;5.85;75.65
69324;DHT22;56470;47.350;8.718;2022-12-07T14:02:33;5.89;75.71
69324;DHT22;56470;47.350;8.718;2022-12-07T14:07:55;5.90;75.51
69324;DHT22;56470;47.350;8.718;2022-12-07T14:10:32;5.90;75.57
69324;DHT22;56470;47.350;8.718;2022-12-07T14:12:59;5.90;75.59
69324;DHT22;56470;47.350;8.718;2022-12-07T14:15:30;5.87;75.49
69324;DHT22;56470;47.350;8.718;2022-12-07T14:17:57;5.86;75.57
69324;DHT22;56470;47.350;8.718;2022-12-07T14:20:36;5.80;75.67
69324;DHT22;56470;47.350;8.718;2022-12-07T14:23:03;5.83;75.88
69324;DHT22;56470;47.350;8.718;2022-12-07T14:25:50;5.83;75.70
69324;DHT22;56470;47.350;8.718;2022-12-07T14:28:29;5.81;75.73
69324;DHT22;56470;47.350;8.718;2022-12-07T14:30:56;5.85;75.74
69324;DHT22;56470;47.350;8.718;2022-12-07T14:33:22;5.85;75.82
69324;DHT22;56470;47.350;8.718;2022-12-07T14:35:48;5.86;75.71
69324;DHT22;56470;47.350;8.718;2022-12-07T14:38:14;5.87;75.63
69324;DHT22;56470;47.350;8.718;2022-12-07T14:40:40;5.89;75.57
69324;DHT22;56470;47.350;8.718;2022-12-07T14:43:09;5.89;75.53
69324;DHT22;56470;47.350;8.718;2022-12-07T14:45:35;5.86;75.50
69324;DHT22;56470;47.350;8.718;2022-12-07T14:48:00;5.87;75.48
69324;DHT22;56470;47.350;8.718;2022-12-07T14:50:25;5.90;75.49
69324;DHT22;56470;47.350;8.718;2022-12-07T14:53:02;5.90;75.52
69324;DHT22;56470;47.350;8.718;2022-12-07T14:55:31;5.91;75.43
69324;DHT22;56470;47.350;8.718;2022-12-07T14:57:57;5.86;75.43
69324;DHT22;56470;47.350;8.718;2022-12-07T15:00:25;5.87;75.48
69324;DHT22;56470;47.350;8.718;2022-12-07T15:02:52;5.83;75.46
69324;DHT22;56470;47.350;8.718;2022-12-07T15:05:18;5.81;75.45
69324;DHT22;56470;47.350;8.718;2022-12-07T15:07:45;5.85;75.37
69324;DHT22;56470;47.350;8.718;2022-12-07T15:10:24;5.85;75.27
69324;DHT22;56470;47.350;8.718;2022-12-07T15:12:54;5.81;75.37
69324;DHT22;56470;47.350;8.718;2022-12-07T15:15:19;5.76;75.44
69324;DHT22;56470;47.350;8.718;2022-12-07T15:17:45;5.70;75.43
69324;DHT22;56470;47.350;8.718;2022-12-07T15:20:14;5.74;75.65
69324;DHT22;56470;47.350;8.718;2022-12-07T15:22:41;5.74;75.62
69324;DHT22;56470;47.350;8.718;2022-12-07T15:25:09;5.77;75.56
69324;DHT22;56470;47.350;8.718;2022-12-07T15:27:37;5.83;75.45
69324;DHT22;56470;47.350;8.718;2022-12-07T15:30:03;5.76;75.44
69324;DHT22;56470;47.350;8.718;2022-12-07T15:32:28;5.73;75.45
69324;DHT22;56470;47.350;8.718;2022-12-07T15:34:57;5.77;75.44
69324;DHT22;56470;47.350;8.718;2022-12-07T15:37:22;5.73;75.32
69324;DHT22;56470;47.350;8.718;2022-12-07T15:39:47;5.76;75.35
69324;DHT22;56470;47.350;8.718;2022-12-07T15:42:13;5.74;75.36
69324;DHT22;56470;47.350;8.718;2022-12-07T15:44:38;5.77;75.39
69324;DHT22;56470;47.350;8.718;2022-12-07T15:47:22;5.80;75.26
69324;DHT22;56470;47.350;8.718;2022-12-07T15:49:47;5.77;75.26
69324;DHT22;56470;47.350;8.718;2022-12-07T15:52:12;5.80;75.23
69324;DHT22;56470;47.350;8.718;2022-12-07T15:54:38;5.81;75.16
69324;DHT22;56470;47.350;8.718;2022-12-07T15:57:04;5.74;75.29
69324;DHT22;56470;47.350;8.718;2022-12-07T15:59:33;5.73;75.30
69324;DHT22;56470;47.350;8.718;2022-12-07T16:01:58;5.74;75.33
69324;DHT22;56470;47.350;8.718;2022-12-07T16:04:23;5.71;75.25
69324;DHT22;56470;47.350;8.718;2022-12-07T16:06:49;5.73;75.24
69324;DHT22;56470;47.350;8.718;2022-12-07T16:09:15;5.71;75.29
69324;DHT22;56470;47.350;8.718;2022-12-07T16:11:41;5.71;75.32
69324;DHT22;56470;47.350;8.718;2022-12-07T16:14:06;5.76;75.30
69324;DHT22;56470;47.350;8.718;2022-12-07T16:16:32;5.76;75.23
69324;DHT22;56470;47.350;8.718;2022-12-07T16:18:57;5.77;75.21
69324;DHT22;56470;47.350;8.718;2022-12-07T16:21:23;5.77;75.26
69324;DHT22;56470;47.350;8.718;2022-12-07T16:23:48;5.79;75.17
69324;DHT22;56470;47.350;8.718;2022-12-07T16:26:17;5.80;75.06
69324;DHT22;56470;47.350;8.718;2022-12-07T16:28:43;5.83;75.00
69324;DHT22;56470;47.350;8.718;2022-12-07T16:31:14;5.86;74.99
69324;DHT22;56470;47.350;8.718;2022-12-07T16:33:40;5.86;75.00
69324;DHT22;56470;47.350;8.718;2022-12-07T16:36:07;5.81;75.01
69324;DHT22;56470;47.350;8.718;2022-12-07T16:38:34;5.81;75.06
69324;DHT22;56470;47.350;8.718;2022-12-07T16:40:59;5.77;75.11
69324;DHT22;56470;47.350;8.718;2022-12-07T16:43:25;5.76;75.26
69324;DHT22;56470;47.350;8.718;2022-12-07T16:45:50;5.76;75.32
69324;DHT22;56470;47.350;8.718;2022-12-07T16:48:16;5.74;75.32
69324;DHT22;56470;47.350;8.718;2022-12-07T16:50:43;5.73;75.34
69324;DHT22;56470;47.350;8.718;2022-12-07T16:53:09;5.70;75.38
69324;DHT22;56470;47.350;8.718;2022-12-07T16:55:39;5.74;75.41
69324;DHT22;56470;47.350;8.718;2022-12-07T16:58:05;5.70;75.46
69324;DHT22;56470;47.350;8.718;2022-12-07T17:00:31;5.74;75.47
69324;DHT22;56470;47.350;8.718;2022-12-07T17:02:56;5.73;75.46
69324;DHT22;56470;47.350;8.718;2022-12-07T17:05:22;5.73;75.46
69324;DHT22;56470;47.350;8.718;2022-12-07T17:07:48;5.73;75.39
69324;DHT22;56470;47.350;8.718;2022-12-07T17:10:14;5.73;75.40
69324;DHT22;56470;47.350;8.718;2022-12-07T17:12:39;5.73;75.38
69324;DHT22;56470;47.350;8.718;2022-12-07T17:15:05;5.73;75.31
69324;DHT22;56470;47.350;8.718;2022-12-07T17:17:47;5.74;75.25
69324;DHT22;56470;47.350;8.718;2022-12-07T17:20:16;5.70;75.29
69324;DHT22;56470;47.350;8.718;2022-12-07T17:22:42;5.70;75.35
69324;DHT22;56470;47.350;8.718;2022-12-07T17:25:07;5.70;75.32
69324;DHT22;56470;47.350;8.718;2022-12-07T17:27:33;5.73;75.23
69324;DHT22;56470;47.350;8.718;2022-12-07T17:29:58;5.71;75.11
69324;DHT22;56470;47.350;8.718;2022-12-07T17:32:23;5.69;75.04
69324;DHT22;56470;47.350;8.718;2022-12-07T17:34:49;5.70;74.99
69324;DHT22;56470;47.350;8.718;2022-12-07T17:37:14;5.67;74.98
69324;DHT22;56470;47.350;8.718;2022-12-07T17:39:39;5.69;74.98